Time;durP1;ratioP1;P1;durP2;ratioP2;P2;SDS_P1;SDS_P2;PMS_P1;PMS_P2;Temp;Humidity;BMP_temperature;BMP_pressure;BME280_temperature;BME280_humidity;BME280_pressure;Samples;Min_cycle;Max_cycle;Signal;HPM_P1;HPM_P2
2022/12/20 00:01:54;;;;;;;7.33;6.60;;;6.90;99.90;;;;;;5100126;28;20547;-44
2022/12/20 00:04:19;;;;;;;7.67;6.87;;;6.90;99.90;;;;;;5117023;28;20592;-45
2022/12/20 00:06:45;;;;;;;7.60;6.70;;;6.90;99.90;;;;;;5119906;28;20433;-47
2022/12/20 00:09:11;;;;;;;7.40;6.53;;;6.90;99.90;;;;;;5120073;28;20244;-46
2022/12/20 00:11:38;;;;;;;7.47;6.77;;;7.00;99.90;;;;;;5120016;28;20241;-44
2022/12/20 00:14:04;;;;;;;7.03;6.00;;;6.90;99.90;;;;;;5120481;28;20372;-43
2022/12/20 00:16:30;;;;;;;8.00;6.20;;;6.90;99.90;;;;;;5120250;28;20482;-44
2022/12/20 00:18:57;;;;;;;9.03;6.53;;;6.90;99.90;;;;;;5119487;28;20203;-44
2022/12/20 00:21:23;;;;;;;6.93;5.50;;;6.90;99.90;;;;;;5102174;28;20176;-44
2022/12/20 00:23:51;;;;;;;6.80;6.10;;;6.90;99.90;;;;;;5120091;28;20684;-44
2022/12/20 00:26:19;;;;;;;7.27;6.17;;;6.90;99.90;;;;;;5118592;28;20422;-43
2022/12/20 00:28:45;;;;;;;7.27;6.17;;;6.90;99.90;;;;;;5102206;28;20850;-44
2022/12/20 00:31:12;;;;;;;7.93;6.50;;;6.90;99.90;;;;;;5119828;28;20683;-44
2022/12/20 00:33:38;;;;;;;7.90;6.63;;;6.90;99.90;;;;;;5120079;28;20248;-43
2022/12/20 00:36:05;;;;;;;7.77;6.90;;;6.90;99.90;;;;;;5119637;28;20414;-44
2022/12/20 00:38:32;;;;;;;8.00;6.93;;;6.90;99.90;;;;;;5119282;28;20436;-46
2022/12/20 00:41:03;;;;;;;7.60;6.13;;;6.90;99.90;;;;;;5119629;28;20827;-44
2022/12/20 00:43:30;;;;;;;7.27;6.37;;;6.90;99.90;;;;;;5104570;28;20792;-43
2022/12/20 00:45:56;;;;;;;8.07;6.70;;;6.90;99.90;;;;;;5099222;28;20413;-46
2022/12/20 00:48:22;;;;;;;6.63;5.90;;;6.90;99.90;;;;;;5099191;28;20415;-45
2022/12/20 00:50:47;;;;;;;6.77;6.07;;;6.90;99.90;;;;;;5098090;28;20256;-46
2022/12/20 00:53:13;;;;;;;6.57;5.80;;;6.90;99.90;;;;;;5098792;28;20540;-44
2022/12/20 00:55:42;;;;;;;7.13;6.07;;;6.80;99.90;;;;;;5098942;28;20165;-46
2022/12/20 00:58:09;;;;;;;7.40;6.17;;;6.90;99.90;;;;;;5099082;28;20184;-44
2022/12/20 01:00:35;;;;;;;6.73;6.00;;;6.90;99.90;;;;;;5098543;28;20532;-47
2022/12/20 01:03:00;;;;;;;7.83;6.17;;;6.90;1.00;;;;;;5098722;28;20839;-44
2022/12/20 01:05:26;;;;;;;6.80;6.10;;;6.90;1.00;;;;;;5098479;28;20407;-45
2022/12/20 01:07:51;;;;;;;7.20;6.40;;;6.90;1.00;;;;;;5099247;28;20237;-43
2022/12/20 01:10:17;;;;;;;7.13;6.53;;;6.90;1.00;;;;;;5097596;28;20283;-43
2022/12/20 01:12:43;;;;;;;6.47;5.70;;;7.00;1.00;;;;;;5096964;28;20255;-45
2022/12/20 01:15:09;;;;;;;8.77;6.40;;;7.00;1.00;;;;;;5097442;28;20274;-44
2022/12/20 01:17:35;;;;;;;8.23;6.73;;;7.00;99.90;;;;;;5095806;28;20180;-43
2022/12/20 01:20:01;;;;;;;8.70;6.67;;;7.00;99.90;;;;;;5075912;28;20477;-44
2022/12/20 01:22:26;;;;;;;6.63;5.53;;;7.00;99.90;;;;;;5094981;28;20184;-43
2022/12/20 01:24:52;;;;;;;7.27;6.10;;;7.00;99.90;;;;;;5094097;28;20528;-45
2022/12/20 01:27:20;;;;;;;7.87;7.07;;;7.00;99.90;;;;;;5095647;28;20459;-44
2022/12/20 01:29:46;;;;;;;7.10;6.40;;;7.00;99.90;;;;;;5097413;28;20653;-43
2022/12/20 01:32:12;;;;;;;7.13;6.43;;;7.00;99.90;;;;;;5098549;28;20453;-44
2022/12/20 01:34:37;;;;;;;8.20;6.90;;;7.00;99.90;;;;;;5098532;28;20180;-46
2022/12/20 01:37:03;;;;;;;9.37;7.63;;;7.10;99.90;;;;;;5098842;28;20593;-43
2022/12/20 01:39:29;;;;;;;7.40;6.40;;;7.10;99.90;;;;;;5097806;28;20215;-46
2022/12/20 01:41:54;;;;;;;6.50;5.77;;;7.10;99.90;;;;;;5098360;28;20459;-45
2022/12/20 01:44:20;;;;;;;7.47;5.93;;;7.10;99.90;;;;;;5080575;28;20177;-44
2022/12/20 01:46:47;;;;;;;6.33;5.73;;;7.10;99.90;;;;;;5098895;28;20176;-46
2022/12/20 01:49:29;;;;;;;7.27;6.20;;;7.10;99.90;;;;;;5098899;28;20169;-43
2022/12/20 01:52:03;;;;;;;7.80;6.10;;;7.10;99.90;;;;;;5081114;28;20454;-44
2022/12/20 01:54:33;;;;;;;8.20;6.70;;;7.10;99.90;;;;;;5079089;28;20419;-44
2022/12/20 01:57:02;;;;;;;7.70;6.90;;;7.10;99.90;;;;;;5098174;28;20519;-44
2022/12/20 01:59:28;;;;;;;10.03;7.00;;;7.10;99.90;;;;;;5063404;28;20543;-45
2022/12/20 02:01:58;;;;;;;7.03;6.00;;;7.10;99.90;;;;;;5097796;28;20418;-45
2022/12/20 02:04:24;;;;;;;8.17;6.33;;;7.10;99.90;;;;;;5098362;28;20411;-43
2022/12/20 02:06:50;;;;;;;9.63;7.17;;;7.10;99.90;;;;;;5098605;28;20422;-44
2022/12/20 02:09:15;;;;;;;7.20;6.50;;;7.10;99.90;;;;;;5097793;28;20173;-43
2022/12/20 02:11:59;;;;;;;6.73;5.57;;;7.10;99.90;;;;;;5080768;28;20209;-44
2022/12/20 02:14:54;;;;;;;7.20;6.00;;;7.10;99.90;;;;;;5103153;28;20260;-44
2022/12/20 02:18:01;;;;;;;8.20;6.40;;;7.10;99.90;;;;;;5102100;28;20427;-44
2022/12/20 02:20:49;;;;;;;5.90;5.30;;;7.10;99.90;;;;;;5083700;28;20827;-45
2022/12/20 02:23:39;;;;;;;7.33;6.63;;;7.10;99.90;;;;;;5084230;28;20438;-44
2022/12/20 02:26:29;;;;;;;8.03;6.10;;;7.10;99.90;;;;;;5084236;28;20402;-47
2022/12/20 02:29:34;;;;;;;6.07;5.07;;;7.10;99.90;;;;;;5101702;28;20420;-43
2022/12/20 02:32:28;;;;;;;6.10;5.50;;;7.10;99.90;;;;;;4999938;28;21046;-43
2022/12/20 02:34:54;;;;;;;6.77;6.07;;;7.10;99.90;;;;;;5069748;28;20438;-43
2022/12/20 02:37:20;;;;;;;6.13;5.43;;;7.10;99.90;;;;;;5083648;28;20418;-44
2022/12/20 02:39:46;;;;;;;6.73;5.97;;;7.10;99.90;;;;;;5101178;28;20281;-45
2022/12/20 02:42:14;;;;;;;8.60;6.53;;;7.10;99.90;;;;;;5101352;28;20422;-46
2022/12/20 02:47:33;;;;;;;7.67;6.30;;;7.10;99.90;;;;;;5086383;28;20417;-45
2022/12/20 02:50:00;;;;;;;8.07;6.80;;;7.10;99.90;;;;;;5083689;28;20446;-44
2022/12/20 02:52:26;;;;;;;7.83;6.53;;;7.10;99.90;;;;;;5101246;28;20751;-47
2022/12/20 02:54:53;;;;;;;7.07;6.33;;;7.10;99.90;;;;;;5100908;28;20454;-44
2022/12/20 02:57:44;;;;;;;7.07;6.17;;;7.10;99.90;;;;;;5101152;28;20423;-46
2022/12/20 03:00:12;;;;;;;7.33;6.60;;;7.10;99.90;;;;;;5100890;28;20470;-44
2022/12/20 03:05:24;;;;;;;9.43;7.30;;;7.10;99.90;;;;;;5100644;28;20405;-44
2022/12/20 03:07:49;;;;;;;7.50;5.77;;;7.00;99.90;;;;;;5083304;28;20429;-47
2022/12/20 03:10:16;;;;;;;6.03;5.43;;;7.10;99.90;;;;;;5101071;28;20510;-45
2022/12/20 03:12:42;;;;;;;8.00;7.20;;;7.10;99.90;;;;;;5087008;28;20228;-48
2022/12/20 03:15:08;;;;;;;7.57;6.67;;;7.10;99.90;;;;;;5100942;28;20430;-45
2022/12/20 03:17:34;;;;;;;9.00;6.63;;;7.10;99.90;;;;;;5101046;28;20230;-44
2022/12/20 03:20:00;;;;;;;6.30;5.70;;;7.10;99.90;;;;;;5099675;28;20499;-45
2022/12/20 03:22:26;;;;;;;9.93;6.40;;;7.10;99.90;;;;;;5101302;28;20484;-43
2022/12/20 03:24:52;;;;;;;6.80;6.10;;;7.10;99.90;;;;;;5100119;28;20827;-45
2022/12/20 03:27:17;;;;;;;6.47;5.83;;;7.10;99.90;;;;;;5101857;28;20422;-44
2022/12/20 03:29:44;;;;;;;7.23;6.20;;;7.10;99.90;;;;;;5101228;28;20423;-44
2022/12/20 03:32:11;;;;;;;6.20;5.50;;;7.10;99.90;;;;;;5100830;28;20203;-44
2022/12/20 03:34:37;;;;;;;6.03;5.30;;;7.00;99.90;;;;;;5100657;28;20423;-44
2022/12/20 03:37:03;;;;;;;8.43;6.43;;;7.00;99.90;;;;;;5100890;28;20498;-46
2022/12/20 03:39:28;;;;;;;6.37;5.77;;;7.00;99.90;;;;;;5099842;28;20307;-46
2022/12/20 03:41:54;;;;;;;7.13;6.10;;;7.00;99.90;;;;;;5100782;28;20871;-44
2022/12/20 03:44:20;;;;;;;7.40;5.90;;;7.00;99.90;;;;;;5100934;28;20180;-46
2022/12/20 03:46:46;;;;;;;6.30;5.40;;;7.00;99.90;;;;;;5100688;28;20173;-46
2022/12/20 03:49:11;;;;;;;7.37;6.47;;;7.00;99.90;;;;;;5100420;28;20428;-44
2022/12/20 03:51:37;;;;;;;6.00;5.40;;;7.00;99.90;;;;;;5100571;28;20180;-44
2022/12/20 03:54:03;;;;;;;7.27;6.57;;;6.90;99.90;;;;;;5100247;28;20187;-44
2022/12/20 03:56:28;;;;;;;6.53;5.73;;;6.90;99.90;;;;;;5100085;28;20176;-44
2022/12/20 03:58:54;;;;;;;6.47;5.20;;;6.90;99.90;;;;;;5099231;28;20208;-44
2022/12/20 04:01:25;;;;;;;7.50;6.20;;;6.90;99.90;;;;;;5099580;28;20177;-45
2022/12/20 04:03:50;;;;;;;7.23;6.53;;;6.90;99.90;;;;;;5099056;28;20451;-46
2022/12/20 04:06:17;;;;;;;7.43;6.00;;;6.90;99.90;;;;;;5099965;28;20418;-45
2022/12/20 04:08:42;;;;;;;7.00;6.10;;;6.90;99.90;;;;;;5099444;28;20192;-45
2022/12/20 04:11:17;;;;;;;7.07;5.67;;;6.90;99.90;;;;;;5097979;28;20484;-44
2022/12/20 04:13:47;;;;;;;8.20;6.00;;;6.90;99.90;;;;;;5097284;28;20246;-43
2022/12/20 04:16:14;;;;;;;6.27;5.40;;;6.90;99.90;;;;;;5097786;28;20525;-44
2022/12/20 04:18:40;;;;;;;6.73;5.47;;;6.90;99.90;;;;;;5097523;28;20414;-44
2022/12/20 04:21:06;;;;;;;5.83;5.13;;;6.90;99.90;;;;;;5079260;28;20755;-45
2022/12/20 04:23:33;;;;;;;7.27;5.43;;;6.90;99.90;;;;;;5098612;28;20204;-43
2022/12/20 04:26:00;;;;;;;7.10;6.03;;;6.90;99.90;;;;;;5097873;28;20772;-45
2022/12/20 04:28:26;;;;;;;6.10;5.47;;;6.90;99.90;;;;;;5099444;28;20419;-44
2022/12/20 04:30:51;;;;;;;7.53;5.90;;;7.00;99.90;;;;;;5099125;28;20406;-44
2022/12/20 04:33:17;;;;;;;6.97;5.97;;;7.00;99.90;;;;;;5099975;28;20406;-45
2022/12/20 04:35:42;;;;;;;6.03;5.33;;;7.00;99.90;;;;;;5099693;28;20169;-45
2022/12/20 04:38:08;;;;;;;6.30;5.40;;;7.00;99.90;;;;;;5081616;28;20543;-45
2022/12/20 04:40:34;;;;;;;6.17;5.57;;;7.00;99.90;;;;;;5099377;28;20291;-43
2022/12/20 04:42:59;;;;;;;5.60;5.10;;;7.00;99.90;;;;;;5099114;28;20212;-45
2022/12/20 04:45:25;;;;;;;6.13;5.53;;;7.00;99.90;;;;;;5096746;28;20324;-43
2022/12/20 04:47:51;;;;;;;6.30;5.67;;;7.00;99.90;;;;;;5093823;28;20227;-44
2022/12/20 04:50:17;;;;;;;7.03;6.00;;;7.00;99.90;;;;;;5092705;28;20504;-44
2022/12/20 04:55:28;;;;;;;6.17;5.57;;;7.00;99.90;;;;;;5093156;28;20921;-43
2022/12/20 04:57:53;;;;;;;6.70;6.03;;;7.10;99.90;;;;;;5094146;28;20508;-43
2022/12/20 05:00:19;;;;;;;7.63;5.13;;;7.10;99.90;;;;;;5095399;28;20192;-45
2022/12/20 05:02:45;;;;;;;6.83;5.67;;;7.10;99.90;;;;;;5095697;28;20450;-45
2022/12/20 05:05:11;;;;;;;6.70;5.83;;;7.10;99.90;;;;;;5077639;28;20414;-45
2022/12/20 05:07:37;;;;;;;8.63;6.60;;;7.10;99.90;;;;;;5099021;28;20543;-44
2022/12/20 05:10:03;;;;;;;8.23;6.90;;;7.10;99.90;;;;;;5107618;28;20188;-43
2022/12/20 05:12:28;;;;;;;8.40;5.57;;;7.10;99.90;;;;;;5100307;28;20625;-46
2022/12/20 05:14:54;;;;;;;6.73;6.03;;;7.10;99.90;;;;;;5116345;28;20437;-44
2022/12/20 05:17:20;;;;;;;7.40;6.20;;;7.10;99.90;;;;;;5111904;28;20180;-44
2022/12/20 05:19:46;;;;;;;5.90;5.30;;;7.20;99.90;;;;;;5098994;28;20456;-43
2022/12/20 05:27:41;;;;;;;8.17;5.60;;;7.20;99.90;;;;;;5100931;28;20404;-43
2022/12/20 05:30:08;;;;;;;7.20;5.63;;;7.20;99.90;;;;;;5096858;28;21054;-46
2022/12/20 05:32:34;;;;;;;6.40;5.80;;;7.20;99.90;;;;;;5101413;28;20175;-44
2022/12/20 05:34:59;;;;;;;5.63;5.03;;;7.20;99.90;;;;;;5113539;28;20843;-45
2022/12/20 05:37:25;;;;;;;6.50;5.50;;;7.20;99.90;;;;;;5093519;28;20605;-45
2022/12/20 05:39:52;;;;;;;5.80;4.90;;;7.30;99.90;;;;;;5099972;28;20207;-45
2022/12/20 05:42:17;;;;;;;6.17;5.50;;;7.30;99.90;;;;;;5095469;28;20604;-43
2022/12/20 05:44:43;;;;;;;5.90;5.30;;;7.30;99.90;;;;;;5097872;28;20452;-44
2022/12/20 05:47:09;;;;;;;6.27;5.70;;;7.30;99.90;;;;;;5111997;28;20203;-44
2022/12/20 05:49:34;;;;;;;6.97;5.43;;;7.30;99.90;;;;;;5115986;28;20627;-45
2022/12/20 05:52:01;;;;;;;5.87;5.27;;;7.30;99.90;;;;;;5119648;28;20493;-46
2022/12/20 05:54:27;;;;;;;8.00;6.13;;;7.30;99.90;;;;;;5102699;28;20180;-44
2022/12/20 05:56:52;;;;;;;8.23;6.00;;;7.30;99.90;;;;;;5118822;28;20859;-45
2022/12/20 05:59:18;;;;;;;5.80;5.20;;;7.30;99.90;;;;;;5117303;28;20207;-43
2022/12/20 06:01:44;;;;;;;5.87;5.23;;;7.30;99.90;;;;;;5118020;28;20198;-43
2022/12/20 06:04:09;;;;;;;5.50;4.80;;;7.30;99.90;;;;;;5117598;28;20176;-42
2022/12/20 06:06:35;;;;;;;6.43;5.27;;;7.40;99.90;;;;;;5116841;28;20588;-44
2022/12/20 06:09:01;;;;;;;7.00;5.90;;;7.30;99.90;;;;;;5117378;28;20473;-45
2022/12/20 06:11:26;;;;;;;7.23;6.00;;;7.30;99.90;;;;;;5117666;28;20744;-43
2022/12/20 06:13:52;;;;;;;7.77;6.17;;;7.30;99.90;;;;;;5117457;28;20234;-43
2022/12/20 06:16:19;;;;;;;8.87;5.33;;;7.40;99.90;;;;;;5116641;28;20176;-45
2022/12/20 06:18:45;;;;;;;6.90;5.70;;;7.40;99.90;;;;;;5114424;28;20219;-46
2022/12/20 06:21:12;;;;;;;7.00;5.77;;;7.40;99.90;;;;;;5112777;28;20432;-43
2022/12/20 06:23:37;;;;;;;6.27;5.60;;;7.40;99.90;;;;;;5112384;28;20183;-44
2022/12/20 06:26:04;;;;;;;5.80;4.57;;;7.40;99.90;;;;;;5113266;28;20409;-44
2022/12/20 06:28:29;;;;;;;6.43;5.50;;;7.40;99.90;;;;;;5079207;28;20510;-45
2022/12/20 06:30:56;;;;;;;6.47;5.60;;;7.40;99.90;;;;;;5115745;28;20469;-44
2022/12/20 06:33:22;;;;;;;6.80;5.20;;;7.40;99.90;;;;;;5117318;28;20172;-44
2022/12/20 06:35:49;;;;;;;5.47;4.97;;;7.40;99.90;;;;;;5117781;28;20405;-43
2022/12/20 06:38:15;;;;;;;6.87;4.73;;;7.40;99.90;;;;;;5100702;28;20832;-45
2022/12/20 06:40:40;;;;;;;5.83;5.00;;;7.40;99.90;;;;;;5118126;28;20500;-45
2022/12/20 06:43:06;;;;;;;6.20;5.40;;;7.40;99.90;;;;;;5083461;28;20175;-42
2022/12/20 06:45:34;;;;;;;6.47;5.40;;;7.40;99.90;;;;;;5117343;28;20194;-46
2022/12/20 06:48:00;;;;;;;6.07;5.47;;;7.50;99.90;;;;;;5098516;28;20461;-42
2022/12/20 06:50:26;;;;;;;5.13;4.67;;;7.50;99.90;;;;;;5099025;28;20467;-44
2022/12/20 06:52:52;;;;;;;5.27;4.77;;;7.50;99.90;;;;;;5116561;28;20387;-43
2022/12/20 06:55:18;;;;;;;5.47;4.97;;;7.50;99.90;;;;;;5116520;28;20478;-42
2022/12/20 06:57:43;;;;;;;5.33;4.10;;;7.50;99.90;;;;;;5113743;28;20184;-43
2022/12/20 07:00:11;;;;;;;5.10;4.60;;;7.50;99.90;;;;;;5112137;28;20231;-42
2022/12/20 07:02:37;;;;;;;5.33;4.83;;;7.50;99.90;;;;;;5114321;28;20190;-44
2022/12/20 07:05:03;;;;;;;5.50;4.63;;;7.50;99.90;;;;;;5112874;28;20778;-53
2022/12/20 07:07:29;;;;;;;6.43;5.27;;;7.50;99.90;;;;;;5112916;28;20445;-44
2022/12/20 07:09:55;;;;;;;4.27;3.87;;;7.60;99.90;;;;;;5097831;28;20702;-41
2022/12/20 07:12:21;;;;;;;5.47;4.90;;;7.60;99.90;;;;;;5115701;28;20461;-45
2022/12/20 07:14:48;;;;;;;6.63;4.97;;;7.60;99.90;;;;;;5116029;28;20753;-41
2022/12/20 07:17:14;;;;;;;4.93;4.43;;;7.60;99.90;;;;;;5116046;28;20512;-44
2022/12/20 07:19:40;;;;;;;5.93;4.50;;;7.60;99.90;;;;;;5116974;28;20575;-45
2022/12/20 07:22:06;;;;;;;7.23;5.03;;;7.60;97.30;;;;;;5099124;28;20657;-43
2022/12/20 07:24:32;;;;;;;5.57;4.23;;;7.70;72.20;;;;;;5115632;28;20180;-43
2022/12/20 07:26:58;;;;;;;6.40;4.97;;;7.70;52.00;;;;;;5115006;28;20426;-43
2022/12/20 07:29:24;;;;;;;4.83;4.33;;;7.70;38.90;;;;;;5116509;28;20517;-43
2022/12/20 07:31:51;;;;;;;5.03;4.53;;;7.80;28.80;;;;;;5097698;28;20180;-43
2022/12/20 07:34:17;;;;;;;5.43;4.93;;;7.80;22.10;;;;;;5100206;28;20881;-43
2022/12/20 07:36:43;;;;;;;5.80;4.53;;;7.80;7.30;;;;;;5116681;28;20406;-44
2022/12/20 07:39:09;;;;;;;4.60;4.20;;;7.80;1.00;;;;;;5115453;28;20484;-44
2022/12/20 07:41:35;;;;;;;5.80;5.30;;;7.90;1.00;;;;;;5095399;28;20332;-43
2022/12/20 07:44:00;;;;;;;5.10;4.60;;;7.90;1.00;;;;;;5114136;28;20176;-44
2022/12/20 07:46:26;;;;;;;5.70;4.47;;;7.90;1.00;;;;;;5115083;28;20180;-43
2022/12/20 07:48:52;;;;;;;6.07;4.90;;;8.00;1.00;;;;;;5115478;28;20252;-44
2022/12/20 07:51:45;;;;;;;5.00;4.23;;;8.00;1.00;;;;;;5114082;28;20422;-45
2022/12/20 07:54:14;;;;;;;4.43;4.03;;;8.10;1.00;;;;;;5113688;28;20191;-42
2022/12/20 07:56:42;;;;;;;5.57;4.97;;;8.10;1.00;;;;;;5112487;28;20464;-45
2022/12/20 07:59:11;;;;;;;5.93;4.40;;;8.20;1.00;;;;;;5095546;28;20568;-43
2022/12/20 08:01:36;;;;;;;6.60;5.17;;;8.20;1.00;;;;;;5095226;28;20452;-43
2022/12/20 08:04:06;;;;;;;2.47;1.70;;;8.30;99.90;;;;;;5111380;28;20483;-44
2022/12/20 08:06:33;;;;;;;3.20;2.37;;;8.60;99.90;;;;;;5114536;28;20810;-46
2022/12/20 08:09:02;;;;;;;4.87;2.50;;;9.80;1.00;;;;;;5113741;28;20437;-45
2022/12/20 08:11:29;;;;;;;10.67;3.30;;;10.70;1.00;;;;;;5112878;28;20517;-44
2022/12/20 08:13:54;;;;;;;7.27;3.13;;;11.30;99.90;;;;;;5108136;28;20533;-46
2022/12/20 08:16:20;;;;;;;5.63;2.77;;;11.80;1.00;;;;;;5110345;28;20425;-45
2022/12/20 08:18:46;;;;;;;5.10;3.00;;;12.20;1.00;;;;;;5111587;28;20183;-46
2022/12/20 08:21:13;;;;;;;3.60;2.57;;;12.70;1.00;;;;;;5112764;28;20204;-46
2022/12/20 08:23:39;;;;;;;19.63;3.20;;;13.10;99.90;;;;;;5113832;28;20508;-45
2022/12/20 08:26:05;;;;;;;4.57;2.83;;;13.40;1.00;;;;;;5109811;28;21045;-45
2022/12/20 08:28:30;;;;;;;5.13;2.90;;;13.70;1.00;;;;;;5111451;28;20719;-46
2022/12/20 08:31:01;;;;;;;6.80;3.00;;;14.10;18.00;;;;;;5112666;28;20325;-46
2022/12/20 08:33:27;;;;;;;4.23;3.00;;;14.30;99.90;;;;;;5114077;28;20190;-42
2022/12/20 08:36:01;;;;;;;3.83;3.07;;;14.40;13.70;;;;;;5116887;28;20413;-43
2022/12/20 08:38:28;;;;;;;4.00;3.57;;;14.20;1.00;;;;;;5114754;28;20440;-45
2022/12/20 08:40:53;;;;;;;5.47;4.70;;;13.80;99.90;;;;;;5117065;28;20472;-44
2022/12/20 08:43:19;;;;;;;4.97;4.30;;;13.40;99.90;;;;;;5117493;28;20425;-47
2022/12/20 08:45:52;;;;;;;5.90;4.10;;;13.10;99.90;;;;;;5114491;28;20580;-43
2022/12/20 08:48:17;;;;;;;4.73;4.33;;;12.80;59.30;;;;;;5115299;27;20564;-48
2022/12/20 08:50:43;;;;;;;4.00;3.60;;;12.60;22.40;;;;;;5116519;28;20892;-45
2022/12/20 08:53:08;;;;;;;4.00;3.60;;;12.30;1.00;;;;;;5117977;28;20241;-45
2022/12/20 08:55:34;;;;;;;5.50;4.30;;;12.10;1.00;;;;;;5116836;28;20179;-43
2022/12/20 08:58:00;;;;;;;5.33;3.90;;;11.90;1.00;;;;;;5117625;28;20175;-43
2022/12/20 09:00:25;;;;;;;6.70;5.07;;;11.80;1.00;;;;;;5116966;28;20215;-45
2022/12/20 09:02:53;;;;;;;4.33;3.83;;;11.60;1.00;;;;;;5114786;28;20172;-43
2022/12/20 09:05:19;;;;;;;4.77;4.30;;;11.40;1.00;;;;;;5116830;28;20164;-45
2022/12/20 09:07:45;;;;;;;5.50;4.07;;;11.30;1.00;;;;;;5117471;28;20489;-44
2022/12/20 09:10:11;;;;;;;4.23;3.70;;;11.20;1.00;;;;;;5117480;28;20186;-42
2022/12/20 09:12:37;;;;;;;4.83;4.43;;;11.10;1.00;;;;;;5115203;28;20235;-43
2022/12/20 09:15:04;;;;;;;4.97;3.90;;;10.90;7.50;;;;;;5115623;28;20474;-42
2022/12/20 09:17:30;;;;;;;5.47;3.93;;;10.80;18.40;;;;;;5116746;28;20425;-42
2022/12/20 09:19:55;;;;;;;4.13;3.70;;;10.70;22.60;;;;;;5116658;28;20470;-42
2022/12/20 09:22:21;;;;;;;5.17;3.60;;;10.70;31.90;;;;;;5093155;28;20171;-44
2022/12/20 09:24:48;;;;;;;5.67;4.23;;;10.60;46.70;;;;;;5108687;28;20554;-43
2022/12/20 09:27:13;;;;;;;6.80;4.13;;;10.60;63.70;;;;;;5095442;28;20467;-43
2022/12/20 09:29:39;;;;;;;4.00;3.60;;;10.50;90.60;;;;;;5111869;28;20737;-44
2022/12/20 09:32:05;;;;;;;5.17;4.03;;;10.50;94.10;;;;;;5112676;28;20183;-43
2022/12/20 09:34:31;;;;;;;4.20;3.70;;;10.60;95.30;;;;;;5114117;28;20183;-42
2022/12/20 09:36:56;;;;;;;4.13;3.73;;;10.60;91.90;;;;;;5115703;28;20711;-42
2022/12/20 09:39:22;;;;;;;4.33;3.93;;;10.80;75.80;;;;;;5114391;28;20465;-43
2022/12/20 09:41:48;;;;;;;3.77;3.47;;;10.90;43.20;;;;;;5113294;28;20179;-44
2022/12/20 09:44:25;;;;;;;4.07;3.50;;;11.10;21.20;;;;;;5108157;28;20186;-42
2022/12/20 09:47:05;;;;;;;4.43;3.90;;;11.20;1.00;;;;;;5112519;28;20568;-44
2022/12/20 09:49:33;;;;;;;5.33;3.90;;;11.40;1.00;;;;;;5095100;28;20850;-44
2022/12/20 09:52:14;;;;;;;5.13;3.40;;;11.60;1.00;;;;;;5093788;28;21028;-44
2022/12/20 09:54:53;;;;;;;4.13;3.70;;;11.80;1.00;;;;;;5091988;28;20417;-45
2022/12/20 09:58:16;;;;;;;4.10;3.60;;;12.20;1.00;;;;;;5090626;28;20784;-42
2022/12/20 10:00:46;;;;;;;4.30;3.63;;;12.60;1.00;;;;;;5010533;28;20488;-43
2022/12/20 10:03:25;;;;;;;4.00;3.10;;;12.60;1.00;;;;;;5008814;28;20428;-44
2022/12/20 10:05:55;;;;;;;4.37;3.80;;;12.60;1.00;;;;;;5068651;28;20419;-45
2022/12/20 10:08:43;;;;;;;4.60;3.50;;;12.60;1.00;;;;;;5094781;28;20723;-43
2022/12/20 10:11:44;;;;;;;6.17;3.60;;;12.50;1.00;;;;;;5094236;28;20433;-42
2022/12/20 10:14:15;;;;;;;4.50;3.90;;;12.40;1.00;;;;;;5092969;28;20465;-43
2022/12/20 10:16:45;;;;;;;4.63;3.73;;;12.30;1.00;;;;;;5093477;28;20422;-44
2022/12/20 10:19:35;;;;;;;4.63;3.60;;;12.10;1.00;;;;;;5092433;28;20470;-42
2022/12/20 10:22:11;;;;;;;4.07;3.67;;;12.00;1.00;;;;;;5110103;28;20673;-43
2022/12/20 10:24:38;;;;;;;3.73;3.40;;;11.80;1.00;;;;;;5095331;28;20421;-44
2022/12/20 10:27:13;;;;;;;4.77;3.97;;;11.80;1.00;;;;;;5112072;28;20463;-41
2022/12/20 10:29:39;;;;;;;3.90;3.43;;;11.70;1.00;;;;;;5109514;28;20417;-41
2022/12/20 10:32:15;;;;;;;5.47;4.00;;;11.60;1.00;;;;;;5093595;28;20458;-44
2022/12/20 10:35:00;;;;;;;4.00;3.60;;;11.50;1.00;;;;;;5115533;28;20413;-44
2022/12/20 10:37:26;;;;;;;4.10;3.37;;;11.40;1.00;;;;;;5097306;28;20884;-42
2022/12/20 10:39:51;;;;;;;3.57;3.23;;;11.30;1.00;;;;;;5114264;28;20545;-41
2022/12/20 10:42:38;;;;;;;4.30;3.73;;;11.30;1.00;;;;;;5112885;28;20243;-43
2022/12/20 10:45:34;;;;;;;4.30;3.70;;;11.30;1.00;;;;;;5114302;28;20160;-42
2022/12/20 10:48:06;;;;;;;5.13;3.77;;;11.30;1.00;;;;;;5094411;28;20428;-42
2022/12/20 10:50:32;;;;;;;4.43;4.03;;;11.30;1.00;;;;;;5093300;28;20525;-43
2022/12/20 10:53:24;;;;;;;4.20;3.80;;;11.30;1.00;;;;;;5094424;28;20505;-43
2022/12/20 10:55:51;;;;;;;4.30;3.90;;;11.30;1.00;;;;;;5114545;28;20432;-45
2022/12/20 10:58:31;;;;;;;4.83;4.33;;;11.30;1.00;;;;;;5097401;28;20460;-42
2022/12/20 11:01:24;;;;;;;4.13;3.70;;;11.40;1.00;;;;;;5097452;28;20862;-43
2022/12/20 11:03:53;;;;;;;4.10;3.70;;;11.50;1.00;;;;;;5112197;28;20433;-43
2022/12/20 11:06:21;;;;;;;5.70;4.17;;;11.60;1.00;;;;;;5116406;28;20429;-42
2022/12/20 11:08:47;;;;;;;3.60;3.23;;;11.70;1.00;;;;;;5096904;28;20485;-43
2022/12/20 11:11:15;;;;;;;4.40;4.00;;;11.80;1.00;;;;;;5096729;28;20421;-42
2022/12/20 11:13:42;;;;;;;5.50;3.80;;;11.90;1.00;;;;;;5112990;28;20223;-51
2022/12/20 11:16:25;;;;;;;4.60;3.77;;;12.00;1.00;;;;;;5108913;28;20516;-43
2022/12/20 11:18:55;;;;;;;4.47;4.07;;;12.10;1.00;;;;;;5108328;28;20433;-43
2022/12/20 11:21:34;;;;;;;4.30;3.30;;;12.10;1.00;;;;;;5094808;28;21082;-43
2022/12/20 11:24:29;;;;;;;5.03;3.30;;;12.10;1.00;;;;;;5110642;28;20438;-46
2022/12/20 11:27:10;;;;;;;4.30;3.90;;;12.10;1.00;;;;;;5097153;28;20513;-44
2022/12/20 11:29:42;;;;;;;4.30;3.70;;;12.20;1.00;;;;;;5097239;28;20425;-43
2022/12/20 11:32:28;;;;;;;4.50;3.50;;;12.20;1.00;;;;;;5097411;28;20507;-43
2022/12/20 11:35:22;;;;;;;4.07;3.50;;;12.20;1.00;;;;;;5097761;28;20712;-43
2022/12/20 11:37:55;;;;;;;6.80;4.70;;;12.20;1.00;;;;;;5116437;28;20721;-43
2022/12/20 11:40:30;;;;;;;10.37;5.20;;;12.20;1.00;;;;;;5117798;28;20719;-45
2022/12/20 11:43:53;;;;;;;7.23;4.53;;;12.20;1.00;;;;;;5115224;28;20478;-44
2022/12/20 11:46:49;;;;;;;5.87;4.13;;;12.20;1.00;;;;;;5011035;28;20418;-43
2022/12/20 11:49:32;;;;;;;4.20;3.80;;;12.20;1.00;;;;;;5011689;28;20433;-44
2022/12/20 11:52:09;;;;;;;5.93;4.20;;;12.10;1.00;;;;;;5105559;28;20409;-44
2022/12/20 11:54:47;;;;;;;4.20;3.60;;;12.10;1.00;;;;;;5078944;28;20420;-45
2022/12/20 11:57:29;;;;;;;4.20;3.63;;;12.00;1.00;;;;;;5096290;28;20429;-44
2022/12/20 12:00:01;;;;;;;5.20;3.77;;;12.00;1.00;;;;;;5091755;28;20572;-43
2022/12/20 12:02:43;;;;;;;4.20;3.33;;;12.00;1.00;;;;;;5094443;28;20799;-45
2022/12/20 12:05:38;;;;;;;4.40;3.30;;;11.90;1.00;;;;;;5098099;28;20684;-43
2022/12/20 12:08:08;;;;;;;3.90;3.50;;;11.80;1.00;;;;;;5104569;28;20417;-43
2022/12/20 12:10:36;;;;;;;4.57;3.93;;;11.80;1.00;;;;;;5098222;28;20413;-44
2022/12/20 12:13:06;;;;;;;4.40;3.20;;;11.70;1.00;;;;;;5115005;28;20465;-43
2022/12/20 12:15:34;;;;;;;3.47;3.13;;;11.70;1.00;;;;;;5097903;28;20444;-43
2022/12/20 12:18:30;;;;;;;4.70;3.30;;;11.60;1.00;;;;;;5068010;28;20433;-43
2022/12/20 12:21:33;;;;;;;3.63;3.23;;;11.60;1.00;;;;;;5091204;28;20474;-47
2022/12/20 12:24:18;;;;;;;3.30;2.87;;;11.60;1.00;;;;;;5107758;28;20693;-45
2022/12/20 12:26:44;;;;;;;3.50;3.00;;;11.70;1.00;;;;;;5113751;28;20504;-42
2022/12/20 12:29:12;;;;;;;3.63;2.83;;;11.70;1.00;;;;;;5096344;28;20516;-45
2022/12/20 12:32:33;;;;;;;4.40;3.23;;;11.60;1.00;;;;;;5097402;28;20555;-44
2022/12/20 12:35:22;;;;;;;3.20;2.90;;;11.60;1.00;;;;;;4993479;28;20524;-45
2022/12/20 12:38:14;;;;;;;4.40;3.60;;;11.60;1.00;;;;;;5010540;28;20414;-43
2022/12/20 12:41:10;;;;;;;4.07;2.90;;;11.60;1.00;;;;;;5104523;28;20495;-44
2022/12/20 12:44:03;;;;;;;4.10;3.40;;;11.60;1.00;;;;;;5102792;28;20414;-42
2022/12/20 12:46:33;;;;;;;5.23;3.00;;;11.60;1.00;;;;;;5109751;28;20458;-45
2022/12/20 12:49:08;;;;;;;4.53;2.83;;;11.60;1.00;;;;;;5098646;28;20417;-43
2022/12/20 12:51:38;;;;;;;3.00;2.70;;;11.60;1.00;;;;;;5115845;28;21002;-43
2022/12/20 12:54:16;;;;;;;3.40;2.97;;;11.60;1.00;;;;;;5090519;28;20406;-42
2022/12/20 12:56:45;;;;;;;4.03;2.97;;;11.60;1.00;;;;;;5109663;28;20432;-45
2022/12/20 12:59:31;;;;;;;3.40;2.83;;;11.60;1.00;;;;;;5115712;28;20476;-44
2022/12/20 13:02:12;;;;;;;3.03;2.73;;;11.60;1.00;;;;;;5110774;28;20486;-43
2022/12/20 13:04:59;;;;;;;3.17;2.87;;;11.60;1.00;;;;;;5113193;28;20803;-42
2022/12/20 13:07:31;;;;;;;3.40;3.00;;;11.70;1.00;;;;;;5116628;28;20430;-43
2022/12/20 13:09:58;;;;;;;4.10;3.53;;;11.80;1.00;;;;;;5116770;28;20421;-45
2022/12/20 13:12:36;;;;;;;4.10;3.70;;;11.90;1.00;;;;;;5115222;28;20463;-45
2022/12/20 13:15:22;;;;;;;4.83;4.00;;;11.90;1.00;;;;;;5115525;28;20513;-43
2022/12/20 13:18:00;;;;;;;5.13;3.90;;;11.90;1.00;;;;;;5097233;28;20418;-46
2022/12/20 13:20:33;;;;;;;4.50;3.87;;;11.80;1.00;;;;;;5113437;28;20786;-43
2022/12/20 13:23:07;;;;;;;5.10;4.10;;;11.80;1.00;;;;;;5115259;28;20512;-45
2022/12/20 13:25:36;;;;;;;3.70;3.10;;;11.70;1.00;;;;;;5112993;28;20759;-43
2022/12/20 13:28:23;;;;;;;4.67;3.20;;;11.60;1.00;;;;;;5109698;28;20471;-43
2022/12/20 13:31:03;;;;;;;6.33;3.70;;;11.50;1.00;;;;;;5110841;28;20471;-41